sensor_id;sensor_type;location;lat;lon;timestamp;pressure;altitude;pressure_sealevel;temperature;humidity
7730;BME280;3908;52.310;7.230;2022-09-13T00:00:23;51373.94;;;-145.83;84.39
7730;BME280;3908;52.310;7.230;2022-09-13T00:03:12;51348.50;;;-145.83;83.87
7730;BME280;3908;52.310;7.230;2022-09-13T00:06:06;51348.50;;;-145.83;83.77
7730;BME280;3908;52.310;7.230;2022-09-13T00:08:53;51391.53;;;-145.83;84.27
7730;BME280;3908;52.310;7.230;2022-09-13T00:11:40;51358.28;;;-145.83;84.97
7730;BME280;3908;52.310;7.230;2022-09-13T00:14:27;51399.38;;;-145.83;85.39
7730;BME280;3908;52.310;7.230;2022-09-13T00:17:14;51334.81;;;-145.83;84.46
7730;BME280;3908;52.310;7.230;2022-09-13T00:20:03;51350.47;;;-145.83;83.47
7730;BME280;3908;52.310;7.230;2022-09-13T00:22:51;51364.16;;;-145.83;83.71
7730;BME280;3908;52.310;7.230;2022-09-13T00:25:38;51381.75;;;-145.83;83.17
7730;BME280;3908;52.310;7.230;2022-09-13T00:28:25;51389.59;;;-145.83;84.72
7730;BME280;3908;52.310;7.230;2022-09-13T00:31:13;51342.63;;;-145.83;85.57
7730;BME280;3908;52.310;7.230;2022-09-13T00:34:00;51375.88;;;-145.83;84.97
7730;BME280;3908;52.310;7.230;2022-09-13T00:36:48;51344.59;;;-145.83;85.83
7730;BME280;3908;52.310;7.230;2022-09-13T00:39:35;51373.94;;;-145.83;86.34
7730;BME280;3908;52.310;7.230;2022-09-13T00:42:24;51370.03;;;-145.83;86.29
7730;BME280;3908;52.310;7.230;2022-09-13T00:45:16;51381.75;;;-145.83;86.42
7730;BME280;3908;52.310;7.230;2022-09-13T00:48:05;51385.66;;;-145.83;86.08
7730;BME280;3908;52.310;7.230;2022-09-13T00:50:54;51375.88;;;-145.83;85.35
7730;BME280;3908;52.310;7.230;2022-09-13T00:53:48;51352.41;;;-145.83;86.17
7730;BME280;3908;52.310;7.230;2022-09-13T00:56:40;51377.84;;;-145.83;86.35
7730;BME280;3908;52.310;7.230;2022-09-13T00:59:38;51319.16;;;-145.83;86.21
7730;BME280;3908;52.310;7.230;2022-09-13T01:02:26;51362.19;;;-145.83;87.60
7730;BME280;3908;52.310;7.230;2022-09-13T01:05:15;51387.63;;;-145.83;86.68
7730;BME280;3908;52.310;7.230;2022-09-13T01:08:05;51387.63;;;-145.83;87.95
7730;BME280;3908;52.310;7.230;2022-09-13T01:10:59;51381.75;;;-145.83;88.28
7730;BME280;3908;52.310;7.230;2022-09-13T01:13:47;51346.53;;;-145.83;87.91
7730;BME280;3908;52.310;7.230;2022-09-13T01:16:35;51377.84;;;-145.83;88.89
7730;BME280;3908;52.310;7.230;2022-09-13T01:19:23;51362.19;;;-145.83;88.54
7730;BME280;3908;52.310;7.230;2022-09-13T01:22:24;51387.63;;;-145.83;88.25
7730;BME280;3908;52.310;7.230;2022-09-13T01:29:07;51366.09;;;-145.83;87.81
7730;BME280;3908;52.310;7.230;2022-09-13T01:32:07;51364.16;;;-145.83;87.74
7730;BME280;3908;52.310;7.230;2022-09-13T01:35:03;51360.22;;;-145.83;87.28
7730;BME280;3908;52.310;7.230;2022-09-13T01:37:56;51366.09;;;-145.83;87.46
7730;BME280;3908;52.310;7.230;2022-09-13T01:40:57;51385.66;;;-145.83;86.56
7730;BME280;3908;52.310;7.230;2022-09-13T01:43:54;51358.28;;;-145.83;86.70
7730;BME280;3908;52.310;7.230;2022-09-13T01:46:46;51409.16;;;-145.83;86.85
7730;BME280;3908;52.310;7.230;2022-09-13T01:49:41;51356.31;;;-145.83;86.68
7730;BME280;3908;52.310;7.230;2022-09-13T01:52:37;51377.84;;;-145.83;87.61
7730;BME280;3908;52.310;7.230;2022-09-13T01:55:32;51401.31;;;-145.83;86.85
7730;BME280;3908;52.310;7.230;2022-09-13T01:58:23;51336.75;;;-145.83;86.85
7730;BME280;3908;52.310;7.230;2022-09-13T02:01:15;51383.72;;;-145.83;87.82
7730;BME280;3908;52.310;7.230;2022-09-13T02:04:06;51366.09;;;-145.83;88.36
7730;BME280;3908;52.310;7.230;2022-09-13T02:07:01;51373.94;;;-145.83;89.64
7730;BME280;3908;52.310;7.230;2022-09-13T02:09:51;51352.41;;;-145.83;89.40
7730;BME280;3908;52.310;7.230;2022-09-13T02:12:42;51387.63;;;-145.83;90.92
7730;BME280;3908;52.310;7.230;2022-09-13T02:15:35;51356.31;;;-145.83;90.43
7730;BME280;3908;52.310;7.230;2022-09-13T02:18:25;51352.41;;;-145.83;91.30
7730;BME280;3908;52.310;7.230;2022-09-13T02:21:19;51379.81;;;-145.83;90.65
7730;BME280;3908;52.310;7.230;2022-09-13T02:24:13;51368.06;;;-145.83;91.07
7730;BME280;3908;52.310;7.230;2022-09-13T02:27:06;51358.28;;;-145.83;91.21
7730;BME280;3908;52.310;7.230;2022-09-13T02:29:56;51371.97;;;-145.83;91.42
7730;BME280;3908;52.310;7.230;2022-09-13T02:32:49;51389.59;;;-145.83;91.47
7730;BME280;3908;52.310;7.230;2022-09-13T02:35:41;51348.50;;;-145.83;91.80
7730;BME280;3908;52.310;7.230;2022-09-13T02:38:33;51354.38;;;-145.83;93.30
7730;BME280;3908;52.310;7.230;2022-09-13T02:41:29;51344.59;;;-145.83;93.22
7730;BME280;3908;52.310;7.230;2022-09-13T02:44:24;51354.38;;;-145.83;94.26
7730;BME280;3908;52.310;7.230;2022-09-13T02:47:32;51370.03;;;-145.83;94.94
7730;BME280;3908;52.310;7.230;2022-09-13T02:50:32;51366.09;;;-145.83;95.18
7730;BME280;3908;52.310;7.230;2022-09-13T02:53:26;51332.84;;;-145.83;95.50
7730;BME280;3908;52.310;7.230;2022-09-13T02:56:19;51381.75;;;-145.83;96.09
7730;BME280;3908;52.310;7.230;2022-09-13T02:59:14;51328.94;;;-145.83;96.43
7730;BME280;3908;52.310;7.230;2022-09-13T03:02:05;51368.06;;;-145.83;96.23
7730;BME280;3908;52.310;7.230;2022-09-13T03:04:53;51383.72;;;-145.83;96.99
7730;BME280;3908;52.310;7.230;2022-09-13T03:07:40;51381.75;;;-145.83;98.13
7730;BME280;3908;52.310;7.230;2022-09-13T03:10:31;51371.97;;;-145.83;98.23
7730;BME280;3908;52.310;7.230;2022-09-13T03:13:33;51344.59;;;-145.83;97.65
7730;BME280;3908;52.310;7.230;2022-09-13T03:16:39;51356.31;;;-145.83;98.15
7730;BME280;3908;52.310;7.230;2022-09-13T03:19:39;51352.41;;;-145.83;98.94
7730;BME280;3908;52.310;7.230;2022-09-13T03:23:07;51370.03;;;-145.83;99.31
7730;BME280;3908;52.310;7.230;2022-09-13T03:26:13;51348.50;;;-145.83;98.60
7730;BME280;3908;52.310;7.230;2022-09-13T03:29:10;51381.75;;;-145.83;98.49
7730;BME280;3908;52.310;7.230;2022-09-13T03:32:13;51391.53;;;-145.83;98.74
7730;BME280;3908;52.310;7.230;2022-09-13T03:35:06;51401.31;;;-145.83;99.24
7730;BME280;3908;52.310;7.230;2022-09-13T03:38:01;51336.75;;;-145.83;98.72
7730;BME280;3908;52.310;7.230;2022-09-13T03:40:52;51377.84;;;-145.83;98.68
7730;BME280;3908;52.310;7.230;2022-09-13T03:43:45;51383.72;;;-145.83;98.31
7730;BME280;3908;52.310;7.230;2022-09-13T03:46:37;51375.88;;;-145.83;98.95
7730;BME280;3908;52.310;7.230;2022-09-13T03:49:28;51385.66;;;-145.83;97.12
7730;BME280;3908;52.310;7.230;2022-09-13T03:52:16;51373.94;;;-145.83;97.86
7730;BME280;3908;52.310;7.230;2022-09-13T03:55:03;51356.31;;;-145.83;97.55
7730;BME280;3908;52.310;7.230;2022-09-13T03:57:53;51373.94;;;-145.83;96.58
7730;BME280;3908;52.310;7.230;2022-09-13T04:00:40;51377.84;;;-145.83;97.12
7730;BME280;3908;52.310;7.230;2022-09-13T04:03:27;51352.41;;;-145.83;97.59
7730;BME280;3908;52.310;7.230;2022-09-13T04:06:15;51377.84;;;-145.83;98.57
7730;BME280;3908;52.310;7.230;2022-09-13T04:09:03;51368.06;;;-145.83;98.90
7730;BME280;3908;52.310;7.230;2022-09-13T04:11:49;51375.88;;;-145.83;99.46
7730;BME280;3908;52.310;7.230;2022-09-13T04:14:37;51399.38;;;-145.83;100.00
7730;BME280;3908;52.310;7.230;2022-09-13T04:17:24;51362.19;;;-145.83;100.00
7730;BME280;3908;52.310;7.230;2022-09-13T04:20:11;51385.66;;;-145.83;100.00
7730;BME280;3908;52.310;7.230;2022-09-13T04:22:59;51373.94;;;-145.83;100.00
7730;BME280;3908;52.310;7.230;2022-09-13T04:25:46;51371.97;;;-145.83;100.00
7730;BME280;3908;52.310;7.230;2022-09-13T04:28:33;51370.03;;;-145.83;100.00
7730;BME280;3908;52.310;7.230;2022-09-13T04:31:20;51383.72;;;-145.83;100.00
7730;BME280;3908;52.310;7.230;2022-09-13T04:34:07;51371.97;;;-145.83;100.00
7730;BME280;3908;52.310;7.230;2022-09-13T04:36:54;51424.78;;;-145.83;100.00
7730;BME280;3908;52.310;7.230;2022-09-13T04:39:43;51358.28;;;-145.83;99.91
7730;BME280;3908;52.310;7.230;2022-09-13T04:42:30;51387.63;;;-145.83;100.00
7730;BME280;3908;52.310;7.230;2022-09-13T04:45:17;51405.22;;;-145.83;100.00
7730;BME280;3908;52.310;7.230;2022-09-13T04:48:04;51354.38;;;-145.83;100.00
7730;BME280;3908;52.310;7.230;2022-09-13T04:50:51;51401.31;;;-145.83;99.90
7730;BME280;3908;52.310;7.230;2022-09-13T04:53:38;51403.28;;;-145.83;99.25
7730;BME280;3908;52.310;7.230;2022-09-13T04:56:26;51379.81;;;-145.83;98.50
7730;BME280;3908;52.310;7.230;2022-09-13T04:59:13;51368.06;;;-145.83;98.17
7730;BME280;3908;52.310;7.230;2022-09-13T05:02:01;51413.06;;;-145.83;97.54
7730;BME280;3908;52.310;7.230;2022-09-13T05:04:48;51379.81;;;-145.83;97.34
7730;BME280;3908;52.310;7.230;2022-09-13T05:07:35;51370.03;;;-145.83;96.76
7730;BME280;3908;52.310;7.230;2022-09-13T05:10:22;51391.53;;;-145.83;96.29
7730;BME280;3908;52.310;7.230;2022-09-13T05:13:10;51405.22;;;-145.83;96.85
7730;BME280;3908;52.310;7.230;2022-09-13T05:15:59;51397.41;;;-145.83;96.37
7730;BME280;3908;52.310;7.230;2022-09-13T05:18:46;51358.28;;;-145.83;96.57
7730;BME280;3908;52.310;7.230;2022-09-13T05:21:33;51385.66;;;-145.83;96.24
7730;BME280;3908;52.310;7.230;2022-09-13T05:24:20;51368.06;;;-145.83;96.78
7730;BME280;3908;52.310;7.230;2022-09-13T05:27:09;51375.88;;;-145.83;96.81
7730;BME280;3908;52.310;7.230;2022-09-13T05:29:57;51385.66;;;-145.83;96.88
7730;BME280;3908;52.310;7.230;2022-09-13T05:32:44;51350.47;;;-145.83;96.50
7730;BME280;3908;52.310;7.230;2022-09-13T05:35:31;51393.50;;;-145.83;96.03
7730;BME280;3908;52.310;7.230;2022-09-13T05:38:18;51360.22;;;-145.83;96.16
7730;BME280;3908;52.310;7.230;2022-09-13T05:41:05;51356.31;;;-145.83;96.95
7730;BME280;3908;52.310;7.230;2022-09-13T05:43:52;51379.81;;;-145.83;96.90
7730;BME280;3908;52.310;7.230;2022-09-13T05:46:41;51371.97;;;-145.83;96.77
7730;BME280;3908;52.310;7.230;2022-09-13T05:49:32;51352.41;;;-145.83;96.34
7730;BME280;3908;52.310;7.230;2022-09-13T05:52:18;51391.53;;;-145.83;96.27
7730;BME280;3908;52.310;7.230;2022-09-13T05:55:06;51397.41;;;-145.83;95.94
7730;BME280;3908;52.310;7.230;2022-09-13T05:57:54;51397.41;;;-145.83;95.82
7730;BME280;3908;52.310;7.230;2022-09-13T06:00:41;51397.41;;;-145.83;94.75
7730;BME280;3908;52.310;7.230;2022-09-13T06:03:29;51385.66;;;-145.83;94.80
7730;BME280;3908;52.310;7.230;2022-09-13T06:06:17;51385.66;;;-145.83;94.67
7730;BME280;3908;52.310;7.230;2022-09-13T06:09:04;51379.81;;;-145.83;94.83
7730;BME280;3908;52.310;7.230;2022-09-13T06:11:53;51434.56;;;-145.83;94.71
7730;BME280;3908;52.310;7.230;2022-09-13T06:14:40;51366.09;;;-145.83;94.71
7730;BME280;3908;52.310;7.230;2022-09-13T06:17:27;51381.75;;;-145.83;94.09
7730;BME280;3908;52.310;7.230;2022-09-13T06:20:15;51352.41;;;-145.83;94.16
7730;BME280;3908;52.310;7.230;2022-09-13T06:23:02;51418.94;;;-145.83;93.77
7730;BME280;3908;52.310;7.230;2022-09-13T06:25:49;51383.72;;;-145.83;93.44
7730;BME280;3908;52.310;7.230;2022-09-13T06:28:37;51379.81;;;-145.83;92.90
7730;BME280;3908;52.310;7.230;2022-09-13T06:31:26;51377.84;;;-145.83;93.52
7730;BME280;3908;52.310;7.230;2022-09-13T06:34:13;51403.28;;;-145.83;92.85
7730;BME280;3908;52.310;7.230;2022-09-13T06:37:03;51405.22;;;-145.83;92.79
7730;BME280;3908;52.310;7.230;2022-09-13T06:39:50;51391.53;;;-145.83;92.54
7730;BME280;3908;52.310;7.230;2022-09-13T06:42:37;51375.88;;;-145.83;92.19
7730;BME280;3908;52.310;7.230;2022-09-13T06:45:24;51407.19;;;-145.83;91.93
7730;BME280;3908;52.310;7.230;2022-09-13T06:48:11;51401.31;;;-145.83;91.83
7730;BME280;3908;52.310;7.230;2022-09-13T06:50:59;51381.75;;;-145.83;91.40
7730;BME280;3908;52.310;7.230;2022-09-13T06:53:48;51418.94;;;-145.83;91.28
7730;BME280;3908;52.310;7.230;2022-09-13T06:56:37;51358.28;;;-145.83;91.24
7730;BME280;3908;52.310;7.230;2022-09-13T06:59:24;51383.72;;;-145.83;91.08
7730;BME280;3908;52.310;7.230;2022-09-13T07:02:11;51395.44;;;-145.83;89.62
7730;BME280;3908;52.310;7.230;2022-09-13T07:04:59;51436.53;;;-145.83;89.90
7730;BME280;3908;52.310;7.230;2022-09-13T07:07:46;51460.00;;;-145.83;90.48
7730;BME280;3908;52.310;7.230;2022-09-13T07:10:34;51397.41;;;-145.83;90.05
7730;BME280;3908;52.310;7.230;2022-09-13T07:13:21;51391.53;;;-145.83;89.58
7730;BME280;3908;52.310;7.230;2022-09-13T07:16:09;51428.72;;;-145.83;89.43
7730;BME280;3908;52.310;7.230;2022-09-13T07:18:58;51397.41;;;-145.83;89.38
7730;BME280;3908;52.310;7.230;2022-09-13T07:21:45;51371.97;;;-145.83;88.85
7730;BME280;3908;52.310;7.230;2022-09-13T07:24:34;51430.66;;;-145.83;89.09
7730;BME280;3908;52.310;7.230;2022-09-13T07:27:22;51420.88;;;-145.83;88.36
7730;BME280;3908;52.310;7.230;2022-09-13T07:30:10;51387.63;;;-145.83;88.59
7730;BME280;3908;52.310;7.230;2022-09-13T07:32:57;51370.03;;;-145.83;88.38
7730;BME280;3908;52.310;7.230;2022-09-13T07:35:44;51420.88;;;-145.83;88.17
7730;BME280;3908;52.310;7.230;2022-09-13T07:38:32;51428.72;;;-145.83;87.94
7730;BME280;3908;52.310;7.230;2022-09-13T07:41:20;51424.78;;;-145.83;88.12
7730;BME280;3908;52.310;7.230;2022-09-13T07:44:10;51418.94;;;-145.83;87.85
7730;BME280;3908;52.310;7.230;2022-09-13T07:46:57;51409.16;;;-145.83;87.72
7730;BME280;3908;52.310;7.230;2022-09-13T07:49:44;51395.44;;;-145.83;87.61
7730;BME280;3908;52.310;7.230;2022-09-13T07:52:31;51454.13;;;-145.83;87.56
7730;BME280;3908;52.310;7.230;2022-09-13T07:55:22;51446.31;;;-145.83;87.76
7730;BME280;3908;52.310;7.230;2022-09-13T07:58:09;51389.59;;;-145.83;87.82
7730;BME280;3908;52.310;7.230;2022-09-13T08:01:03;51391.53;;;-145.83;89.06
7730;BME280;3908;52.310;7.230;2022-09-13T08:03:53;51418.94;;;-145.83;89.62
7730;BME280;3908;52.310;7.230;2022-09-13T08:06:41;51418.94;;;-145.83;90.10
7730;BME280;3908;52.310;7.230;2022-09-13T08:09:29;51413.06;;;-145.83;91.94
7730;BME280;3908;52.310;7.230;2022-09-13T08:12:16;51407.19;;;-145.83;93.28
7730;BME280;3908;52.310;7.230;2022-09-13T08:15:04;51397.41;;;-145.83;93.94
7730;BME280;3908;52.310;7.230;2022-09-13T08:17:53;51444.34;;;-145.83;95.27
7730;BME280;3908;52.310;7.230;2022-09-13T08:20:40;51446.31;;;-145.83;96.93
7730;BME280;3908;52.310;7.230;2022-09-13T08:23:27;51397.41;;;-145.83;97.24
7730;BME280;3908;52.310;7.230;2022-09-13T08:26:16;51461.97;;;-145.83;98.04
7730;BME280;3908;52.310;7.230;2022-09-13T08:29:04;51430.66;;;-145.83;98.58
7730;BME280;3908;52.310;7.230;2022-09-13T08:31:52;51430.66;;;-145.83;98.39
7730;BME280;3908;52.310;7.230;2022-09-13T08:34:40;51391.53;;;-145.83;98.50
7730;BME280;3908;52.310;7.230;2022-09-13T08:37:30;51418.94;;;-145.83;97.54
7730;BME280;3908;52.310;7.230;2022-09-13T08:40:19;51371.97;;;-145.83;97.06
7730;BME280;3908;52.310;7.230;2022-09-13T08:43:15;51444.34;;;-145.83;95.68
7730;BME280;3908;52.310;7.230;2022-09-13T08:46:12;51413.06;;;-145.83;93.44
7730;BME280;3908;52.310;7.230;2022-09-13T08:49:05;51446.31;;;-145.83;93.50
7730;BME280;3908;52.310;7.230;2022-09-13T08:51:57;51407.19;;;-145.83;91.24
7730;BME280;3908;52.310;7.230;2022-09-13T08:54:49;51420.88;;;-145.83;91.51
7730;BME280;3908;52.310;7.230;2022-09-13T08:57:44;51450.22;;;-145.83;88.07
7730;BME280;3908;52.310;7.230;2022-09-13T09:00:38;51481.53;;;-145.83;87.52
7730;BME280;3908;52.310;7.230;2022-09-13T09:03:37;51446.31;;;-145.83;85.48
7730;BME280;3908;52.310;7.230;2022-09-13T09:06:27;51434.56;;;-145.83;84.16
7730;BME280;3908;52.310;7.230;2022-09-13T09:09:18;51440.44;;;-145.83;84.49
7730;BME280;3908;52.310;7.230;2022-09-13T09:12:16;51430.66;;;-145.83;84.19
7730;BME280;3908;52.310;7.230;2022-09-13T09:15:13;51422.84;;;-145.83;83.06
7730;BME280;3908;52.310;7.230;2022-09-13T09:18:04;51458.06;;;-145.83;81.68
7730;BME280;3908;52.310;7.230;2022-09-13T09:20:59;51415.00;;;-145.83;82.36
7730;BME280;3908;52.310;7.230;2022-09-13T09:23:51;51428.72;;;-145.83;81.13
7730;BME280;3908;52.310;7.230;2022-09-13T09:26:40;51458.06;;;-145.83;81.53
7730;BME280;3908;52.310;7.230;2022-09-13T09:29:28;51442.41;;;-145.83;80.89
7730;BME280;3908;52.310;7.230;2022-09-13T09:32:33;51461.97;;;-145.83;80.59
7730;BME280;3908;52.310;7.230;2022-09-13T09:35:33;51448.28;;;-145.83;78.12
7730;BME280;3908;52.310;7.230;2022-09-13T09:38:31;51501.09;;;-145.83;76.32
7730;BME280;3908;52.310;7.230;2022-09-13T09:41:26;51456.09;;;-145.83;76.08
7730;BME280;3908;52.310;7.230;2022-09-13T09:44:18;51458.06;;;-145.83;76.21
7730;BME280;3908;52.310;7.230;2022-09-13T09:47:13;51495.22;;;-145.83;73.70
7730;BME280;3908;52.310;7.230;2022-09-13T09:50:06;51493.25;;;-145.83;72.12
7730;BME280;3908;52.310;7.230;2022-09-13T09:53:01;51456.09;;;-145.83;72.64
7730;BME280;3908;52.310;7.230;2022-09-13T09:55:57;51501.09;;;-145.83;73.91
7730;BME280;3908;52.310;7.230;2022-09-13T09:58:46;51444.34;;;-145.83;74.73
7730;BME280;3908;52.310;7.230;2022-09-13T10:01:36;51460.00;;;-145.83;76.37
7730;BME280;3908;52.310;7.230;2022-09-13T10:04:25;51481.53;;;-145.83;76.52
7730;BME280;3908;52.310;7.230;2022-09-13T10:07:23;51481.53;;;-145.83;77.08
7730;BME280;3908;52.310;7.230;2022-09-13T10:10:20;51483.47;;;-145.83;75.99
7730;BME280;3908;52.310;7.230;2022-09-13T10:13:14;51430.66;;;-145.83;76.00
7730;BME280;3908;52.310;7.230;2022-09-13T10:16:04;51469.78;;;-145.83;73.25
7730;BME280;3908;52.310;7.230;2022-09-13T10:18:53;51495.22;;;-145.83;74.27
7730;BME280;3908;52.310;7.230;2022-09-13T10:21:40;51469.78;;;-145.83;74.17
7730;BME280;3908;52.310;7.230;2022-09-13T10:24:28;51473.69;;;-145.83;73.29
7730;BME280;3908;52.310;7.230;2022-09-13T10:27:30;51444.34;;;-145.83;73.61
7730;BME280;3908;52.310;7.230;2022-09-13T10:30:30;51471.75;;;-145.83;75.63
7730;BME280;3908;52.310;7.230;2022-09-13T10:33:24;51409.16;;;-145.83;75.46
7730;BME280;3908;52.310;7.230;2022-09-13T10:36:17;51448.28;;;-145.83;75.54
7730;BME280;3908;52.310;7.230;2022-09-13T10:39:07;51438.50;;;-145.83;75.72
7730;BME280;3908;52.310;7.230;2022-09-13T10:42:04;51442.41;;;-145.83;74.97
7730;BME280;3908;52.310;7.230;2022-09-13T10:44:54;51454.13;;;-145.83;74.67
7730;BME280;3908;52.310;7.230;2022-09-13T10:47:44;51471.75;;;-145.83;74.84
7730;BME280;3908;52.310;7.230;2022-09-13T10:50:33;51475.66;;;-145.83;74.85
7730;BME280;3908;52.310;7.230;2022-09-13T10:53:33;51434.56;;;-145.83;74.77
7730;BME280;3908;52.310;7.230;2022-09-13T10:56:24;51465.88;;;-145.83;73.79
7730;BME280;3908;52.310;7.230;2022-09-13T10:59:19;51428.72;;;-145.83;73.17
7730;BME280;3908;52.310;7.230;2022-09-13T11:02:29;51463.91;;;-145.83;73.81
7730;BME280;3908;52.310;7.230;2022-09-13T11:05:24;51452.19;;;-145.83;72.28
7730;BME280;3908;52.310;7.230;2022-09-13T11:08:32;51434.56;;;-145.83;71.98
7730;BME280;3908;52.310;7.230;2022-09-13T11:11:25;51430.66;;;-145.83;71.38
7730;BME280;3908;52.310;7.230;2022-09-13T11:14:29;51409.16;;;-145.83;71.07
7730;BME280;3908;52.310;7.230;2022-09-13T11:17:32;51481.53;;;-145.83;69.96
7730;BME280;3908;52.310;7.230;2022-09-13T11:20:31;51460.00;;;-145.83;69.44
7730;BME280;3908;52.310;7.230;2022-09-13T11:23:48;51497.19;;;-145.83;66.61
7730;BME280;3908;52.310;7.230;2022-09-13T11:26:45;51479.56;;;-145.83;66.22
7730;BME280;3908;52.310;7.230;2022-09-13T11:29:56;51516.75;;;-145.83;64.32
7730;BME280;3908;52.310;7.230;2022-09-13T11:33:00;51477.63;;;-145.83;65.26
7730;BME280;3908;52.310;7.230;2022-09-13T11:36:01;51506.97;;;-145.83;67.22
7730;BME280;3908;52.310;7.230;2022-09-13T11:39:02;51485.44;;;-145.83;66.77
7730;BME280;3908;52.310;7.230;2022-09-13T11:42:02;51538.25;;;-145.83;63.00
7730;BME280;3908;52.310;7.230;2022-09-13T11:45:06;51497.19;;;-145.83;61.78
7730;BME280;3908;52.310;7.230;2022-09-13T11:48:08;51522.63;;;-145.83;57.88
7730;BME280;3908;52.310;7.230;2022-09-13T11:51:03;51477.63;;;-145.83;56.77
7730;BME280;3908;52.310;7.230;2022-09-13T11:54:20;51477.63;;;-145.83;57.31
7730;BME280;3908;52.310;7.230;2022-09-13T11:57:14;51483.47;;;-145.83;57.39
7730;BME280;3908;52.310;7.230;2022-09-13T12:00:05;51508.91;;;-145.83;57.10
7730;BME280;3908;52.310;7.230;2022-09-13T12:03:00;51508.91;;;-145.83;55.71
7730;BME280;3908;52.310;7.230;2022-09-13T12:05:53;51506.97;;;-145.83;56.63
7730;BME280;3908;52.310;7.230;2022-09-13T12:08:45;51485.44;;;-145.83;56.08
7730;BME280;3908;52.310;7.230;2022-09-13T12:11:38;51499.13;;;-145.83;56.60
7730;BME280;3908;52.310;7.230;2022-09-13T12:14:31;51479.56;;;-145.83;58.11
7730;BME280;3908;52.310;7.230;2022-09-13T12:17:25;51514.78;;;-145.83;57.16
7730;BME280;3908;52.310;7.230;2022-09-13T12:20:17;51522.63;;;-145.83;56.00
7730;BME280;3908;52.310;7.230;2022-09-13T12:23:11;51497.19;;;-145.83;54.92
7730;BME280;3908;52.310;7.230;2022-09-13T12:26:04;51505.00;;;-145.83;54.39
7730;BME280;3908;52.310;7.230;2022-09-13T12:29:00;51526.53;;;-145.83;54.43
7730;BME280;3908;52.310;7.230;2022-09-13T12:31:48;51489.34;;;-145.83;54.70
7730;BME280;3908;52.310;7.230;2022-09-13T12:34:41;51534.34;;;-145.83;54.04
7730;BME280;3908;52.310;7.230;2022-09-13T12:37:58;51555.88;;;-145.83;54.08
7730;BME280;3908;52.310;7.230;2022-09-13T12:41:00;51551.97;;;-145.83;52.59
7730;BME280;3908;52.310;7.230;2022-09-13T12:44:03;51503.06;;;-145.83;53.49
7730;BME280;3908;52.310;7.230;2022-09-13T12:47:18;51489.34;;;-145.83;52.97
7730;BME280;3908;52.310;7.230;2022-09-13T12:50:36;51481.53;;;-145.83;53.95
7730;BME280;3908;52.310;7.230;2022-09-13T12:53:46;51506.97;;;-145.83;53.41
7730;BME280;3908;52.310;7.230;2022-09-13T12:56:52;51505.00;;;-145.83;54.22
7730;BME280;3908;52.310;7.230;2022-09-13T13:00:07;51479.56;;;-145.83;55.64
7730;BME280;3908;52.310;7.230;2022-09-13T13:03:03;51483.47;;;-145.83;55.98
7730;BME280;3908;52.310;7.230;2022-09-13T13:06:07;51499.13;;;-145.83;55.76
7730;BME280;3908;52.310;7.230;2022-09-13T13:08:57;51467.84;;;-145.83;55.53
7730;BME280;3908;52.310;7.230;2022-09-13T13:11:45;51512.84;;;-145.83;53.76
7730;BME280;3908;52.310;7.230;2022-09-13T13:14:46;51479.56;;;-145.83;51.82
7730;BME280;3908;52.310;7.230;2022-09-13T13:17:44;51516.75;;;-145.83;50.94
7730;BME280;3908;52.310;7.230;2022-09-13T13:21:02;51532.41;;;-145.83;51.23
7730;BME280;3908;52.310;7.230;2022-09-13T13:27:46;51485.44;;;-145.83;51.99
7730;BME280;3908;52.310;7.230;2022-09-13T13:33:47;51526.53;;;-145.83;51.84
7730;BME280;3908;52.310;7.230;2022-09-13T13:36:43;51503.06;;;-145.83;52.63
7730;BME280;3908;52.310;7.230;2022-09-13T13:39:37;51458.06;;;-145.83;52.56
7730;BME280;3908;52.310;7.230;2022-09-13T13:42:26;51475.66;;;-145.83;52.41
7730;BME280;3908;52.310;7.230;2022-09-13T13:45:23;51450.22;;;-145.83;53.00
7730;BME280;3908;52.310;7.230;2022-09-13T13:48:13;51479.56;;;-145.83;50.98
7730;BME280;3908;52.310;7.230;2022-09-13T13:51:33;51483.47;;;-145.83;50.40
7730;BME280;3908;52.310;7.230;2022-09-13T13:57:49;51501.09;;;-145.83;50.37
7730;BME280;3908;52.310;7.230;2022-09-13T14:00:46;51512.84;;;-145.83;50.31
7730;BME280;3908;52.310;7.230;2022-09-13T14:03:49;51508.91;;;-145.83;50.90
7730;BME280;3908;52.310;7.230;2022-09-13T14:06:50;51469.78;;;-145.83;50.27
7730;BME280;3908;52.310;7.230;2022-09-13T14:09:48;51465.88;;;-145.83;49.38
7730;BME280;3908;52.310;7.230;2022-09-13T14:12:50;51493.25;;;-145.83;50.27
7730;BME280;3908;52.310;7.230;2022-09-13T14:15:49;51503.06;;;-145.83;49.91
7730;BME280;3908;52.310;7.230;2022-09-13T14:19:00;51489.34;;;-145.83;50.23
7730;BME280;3908;52.310;7.230;2022-09-13T14:22:15;51461.97;;;-145.83;50.44
7730;BME280;3908;52.310;7.230;2022-09-13T14:25:17;51493.25;;;-145.83;49.48
7730;BME280;3908;52.310;7.230;2022-09-13T14:28:11;51503.06;;;-145.83;48.87
7730;BME280;3908;52.310;7.230;2022-09-13T14:30:59;51495.22;;;-145.83;49.94
7730;BME280;3908;52.310;7.230;2022-09-13T14:33:47;51514.78;;;-145.83;49.48
7730;BME280;3908;52.310;7.230;2022-09-13T14:36:35;51491.31;;;-145.83;49.09
7730;BME280;3908;52.310;7.230;2022-09-13T14:39:24;51481.53;;;-145.83;50.23
7730;BME280;3908;52.310;7.230;2022-09-13T14:42:13;51473.69;;;-145.83;51.39
7730;BME280;3908;52.310;7.230;2022-09-13T14:45:01;51503.06;;;-145.83;50.96
7730;BME280;3908;52.310;7.230;2022-09-13T14:47:52;51471.75;;;-145.83;50.20
7730;BME280;3908;52.310;7.230;2022-09-13T14:50:47;51485.44;;;-145.83;49.88
7730;BME280;3908;52.310;7.230;2022-09-13T14:53:35;51467.84;;;-145.83;49.60
7730;BME280;3908;52.310;7.230;2022-09-13T14:56:30;51471.75;;;-145.83;50.37
7730;BME280;3908;52.310;7.230;2022-09-13T14:59:25;51508.91;;;-145.83;51.10
7730;BME280;3908;52.310;7.230;2022-09-13T15:02:17;51465.88;;;-145.83;51.49
7730;BME280;3908;52.310;7.230;2022-09-13T15:05:12;51450.22;;;-145.83;50.49
7730;BME280;3908;52.310;7.230;2022-09-13T15:08:38;51450.22;;;-145.83;51.35
7730;BME280;3908;52.310;7.230;2022-09-13T15:11:34;51463.91;;;-145.83;51.68
7730;BME280;3908;52.310;7.230;2022-09-13T15:14:26;51456.09;;;-145.83;52.39
7730;BME280;3908;52.310;7.230;2022-09-13T15:17:13;51454.13;;;-145.83;52.29
7730;BME280;3908;52.310;7.230;2022-09-13T15:20:03;51448.28;;;-145.83;52.84
7730;BME280;3908;52.310;7.230;2022-09-13T15:22:51;51463.91;;;-145.83;52.70
7730;BME280;3908;52.310;7.230;2022-09-13T15:25:38;51458.06;;;-145.83;53.31
7730;BME280;3908;52.310;7.230;2022-09-13T15:28:28;51489.34;;;-145.83;53.04